Time;durP1;ratioP1;P1;durP2;ratioP2;P2;SDS_P1;SDS_P2;PMS_P1;PMS_P2;Temp;Humidity;BMP_temperature;BMP_pressure;BME280_temperature;BME280_humidity;BME280_pressure;Samples;Min_cycle;Max_cycle;Signal;HPM_P1;HPM_P2
2022/04/11 00:00:30;;;;;;;5.00;3.37;;;;;;;;;;4448582;32;20295;-56
2022/04/11 00:02:56;;;;;;;4.90;3.07;;;;;;;;;;4448647;32;20225;-55
2022/04/11 00:05:22;;;;;;;4.43;2.87;;;;;;;;;;4453230;32;20407;-54
2022/04/11 00:07:49;;;;;;;3.43;2.53;;;;;;;;;;4448411;32;20357;-54
2022/04/11 00:10:15;;;;;;;3.97;2.77;;;;;;;;;;4448437;32;20271;-54
2022/04/11 00:12:40;;;;;;;6.07;2.83;;;;;;;;;;4448392;32;20216;-54
2022/04/11 00:15:07;;;;;;;2.80;2.40;;;;;;;;;;4448428;32;20314;-56
2022/04/11 00:17:33;;;;;;;4.83;2.40;;;;;;;;;;4448781;32;20758;-54
2022/04/11 00:19:59;;;;;;;4.60;2.83;;;;;;;;;;4455769;32;20348;-54
2022/04/11 00:22:24;;;;;;;3.73;2.77;;;;;;;;;;4448155;32;20358;-54
2022/04/11 00:24:51;;;;;;;5.63;3.30;;;;;;;;;;4448556;32;20279;-54
2022/04/11 00:27:17;;;;;;;5.37;2.93;;;;;;;;;;4448140;32;20343;-54
2022/04/11 00:29:43;;;;;;;4.07;2.63;;;;;;;;;;4448559;32;20630;-55
2022/04/11 00:32:08;;;;;;;10.73;2.97;;;;;;;;;;4448047;32;20299;-55
2022/04/11 00:34:33;;;;;;;3.67;2.90;;;;;;;;;;4447145;32;20367;-54
2022/04/11 00:36:59;;;;;;;4.67;2.63;;;;;;;;;;4448423;32;20541;-54
2022/04/11 00:39:24;;;;;;;3.27;2.37;;;;;;;;;;4460100;32;20327;-54
2022/04/11 00:41:50;;;;;;;4.10;2.53;;;;;;;;;;4463143;32;20731;-55
2022/04/11 00:44:15;;;;;;;3.93;2.73;;;;;;;;;;4463446;32;20356;-53
2022/04/11 00:46:41;;;;;;;4.60;2.57;;;;;;;;;;4457222;32;20712;-54
2022/04/11 00:49:07;;;;;;;3.50;2.90;;;;;;;;;;4448074;32;20680;-54
2022/04/11 00:51:33;;;;;;;6.37;2.87;;;;;;;;;;4447924;32;20209;-55
2022/04/11 00:53:59;;;;;;;3.87;2.90;;;;;;;;;;4447842;32;20269;-55
2022/04/11 00:56:28;;;;;;;5.53;2.70;;;;;;;;;;4449459;32;20674;-55
2022/04/11 00:58:55;;;;;;;6.47;2.60;;;;;;;;;;4448105;32;20308;-54
2022/04/11 01:01:20;;;;;;;8.53;3.03;;;;;;;;;;4446429;32;20229;-54
2022/04/11 01:03:46;;;;;;;3.67;2.67;;;;;;;;;;4447655;32;20257;-55
2022/04/11 01:06:12;;;;;;;4.43;3.00;;;;;;;;;;4452088;32;20312;-54
2022/04/11 01:08:38;;;;;;;4.30;2.60;;;;;;;;;;4447542;32;20709;-55
2022/04/11 01:11:04;;;;;;;3.53;2.63;;;;;;;;;;4447154;32;20280;-55
2022/04/11 01:13:29;;;;;;;3.83;2.37;;;;;;;;;;4447454;32;20300;-54
2022/04/11 01:16:01;;;;;;;6.53;2.83;;;;;;;;;;4447218;32;20294;-54
2022/04/11 01:18:27;;;;;;;6.47;3.03;;;;;;;;;;4447299;32;20254;-54
2022/04/11 01:20:53;;;;;;;3.10;2.43;;;;;;;;;;4447206;32;20360;-54
2022/04/11 01:23:19;;;;;;;3.83;2.57;;;;;;;;;;4447557;32;20212;-54
2022/04/11 01:25:52;;;;;;;3.40;2.40;;;;;;;;;;4447130;32;20549;-55
2022/04/11 01:28:19;;;;;;;3.90;2.90;;;;;;;;;;4447115;32;20335;-54
2022/04/11 01:30:45;;;;;;;3.37;2.53;;;;;;;;;;4447555;32;20231;-55
2022/04/11 01:33:26;;;;;;;2.77;2.40;;;;;;;;;;4447114;32;20258;-54
2022/04/11 01:35:51;;;;;;;4.50;2.97;;;;;;;;;;4447161;32;20217;-54
2022/04/11 01:38:17;;;;;;;3.90;2.73;;;;;;;;;;4447129;32;20267;-54
2022/04/11 01:40:56;;;;;;;5.97;2.53;;;;;;;;;;4446913;32;20443;-54
2022/04/11 01:43:23;;;;;;;4.23;2.87;;;;;;;;;;4446698;32;20224;-54
2022/04/11 01:45:49;;;;;;;6.13;2.97;;;;;;;;;;4446955;32;20666;-55
2022/04/11 01:48:15;;;;;;;4.63;2.67;;;;;;;;;;4448039;32;20343;-54
2022/04/11 01:50:40;;;;;;;3.47;2.33;;;;;;;;;;4446611;32;20330;-55
2022/04/11 01:53:13;;;;;;;3.33;2.50;;;;;;;;;;4446787;32;20216;-55
2022/04/11 01:55:39;;;;;;;8.47;2.60;;;;;;;;;;4447047;32;20267;-55
2022/04/11 01:58:07;;;;;;;4.87;2.50;;;;;;;;;;4445574;32;20856;-55
2022/04/11 02:00:33;;;;;;;5.80;2.60;;;;;;;;;;4446662;32;20362;-55
2022/04/11 02:02:59;;;;;;;3.70;2.57;;;;;;;;;;4446633;32;20295;-54
2022/04/11 02:05:28;;;;;;;5.43;2.80;;;;;;;;;;4449723;32;20311;-54
2022/04/11 02:07:55;;;;;;;4.50;2.03;;;;;;;;;;4446373;32;20331;-54
2022/04/11 02:10:20;;;;;;;2.80;2.53;;;;;;;;;;4446351;32;20204;-55
2022/04/11 02:12:47;;;;;;;4.67;2.60;;;;;;;;;;4446311;32;20433;-55
2022/04/11 02:15:13;;;;;;;3.13;2.40;;;;;;;;;;4445383;32;20701;-55
2022/04/11 02:17:39;;;;;;;5.17;2.60;;;;;;;;;;4446930;32;20312;-55
2022/04/11 02:20:06;;;;;;;3.13;2.30;;;;;;;;;;4446880;32;20355;-55
2022/04/11 02:22:51;;;;;;;4.03;2.70;;;;;;;;;;4445066;32;20263;-55
2022/04/11 02:25:18;;;;;;;6.20;2.47;;;;;;;;;;4446805;32;20184;-55
2022/04/11 02:27:44;;;;;;;6.00;2.60;;;;;;;;;;4446746;32;20793;-55
2022/04/11 02:30:11;;;;;;;6.53;3.07;;;;;;;;;;4446608;32;20284;-56
2022/04/11 02:32:37;;;;;;;4.30;2.47;;;;;;;;;;4446626;32;20637;-55
2022/04/11 02:35:03;;;;;;;6.27;2.70;;;;;;;;;;4456792;32;20287;-56
2022/04/11 02:37:29;;;;;;;6.40;3.60;;;;;;;;;;4462283;32;20259;-55
2022/04/11 02:39:54;;;;;;;3.90;3.03;;;;;;;;;;4448353;32;20303;-56
2022/04/11 02:42:22;;;;;;;7.27;4.17;;;;;;;;;;4445427;32;20228;-55
2022/04/11 02:44:48;;;;;;;9.37;4.70;;;;;;;;;;4446771;32;20319;-55
2022/04/11 02:47:13;;;;;;;4.00;3.40;;;;;;;;;;4451731;32;20260;-55
2022/04/11 02:49:38;;;;;;;4.73;3.03;;;;;;;;;;4447133;32;20221;-55
2022/04/11 02:52:04;;;;;;;4.83;2.93;;;;;;;;;;4446885;32;20343;-54
2022/04/11 02:54:30;;;;;;;3.93;2.90;;;;;;;;;;4446506;32;20305;-57
2022/04/11 02:56:55;;;;;;;6.83;4.73;;;;;;;;;;4446406;32;20235;-55
2022/04/11 02:59:20;;;;;;;11.33;4.17;;;;;;;;;;4446746;32;20256;-56
2022/04/11 03:01:46;;;;;;;14.93;3.87;;;;;;;;;;4447318;32;20266;-54
2022/04/11 03:04:11;;;;;;;14.03;5.87;;;;;;;;;;4449371;32;20228;-55
2022/04/11 03:06:37;;;;;;;11.80;5.27;;;;;;;;;;4453950;32;20301;-56
2022/04/11 03:09:02;;;;;;;7.40;4.23;;;;;;;;;;4448983;32;20288;-55
2022/04/11 03:11:28;;;;;;;13.07;6.67;;;;;;;;;;4449287;32;20277;-55
2022/04/11 03:13:53;;;;;;;11.43;7.20;;;;;;;;;;4448902;32;20333;-54
2022/04/11 03:16:19;;;;;;;5.90;4.17;;;;;;;;;;4449219;32;20238;-54
2022/04/11 03:18:44;;;;;;;7.23;3.23;;;;;;;;;;4449277;32;20390;-55
2022/04/11 03:21:09;;;;;;;10.67;3.77;;;;;;;;;;4449310;32;20621;-54
2022/04/11 03:23:35;;;;;;;7.50;4.53;;;;;;;;;;4449161;32;20252;-55
2022/04/11 03:26:00;;;;;;;7.33;4.00;;;;;;;;;;4448935;32;20280;-55
2022/04/11 03:28:26;;;;;;;17.97;7.57;;;;;;;;;;4449295;32;20258;-56
2022/04/11 03:30:51;;;;;;;8.63;5.07;;;;;;;;;;4449602;32;20707;-55
2022/04/11 03:33:17;;;;;;;10.43;5.20;;;;;;;;;;4448821;32;20232;-55
2022/04/11 03:35:42;;;;;;;5.90;3.07;;;;;;;;;;4463645;32;20726;-55
2022/04/11 03:38:08;;;;;;;8.30;4.47;;;;;;;;;;4464770;32;20232;-55
2022/04/11 03:40:33;;;;;;;4.73;3.27;;;;;;;;;;4464415;32;20952;-55
2022/04/11 03:42:58;;;;;;;4.50;3.87;;;;;;;;;;4458591;32;20671;-55
2022/04/11 03:45:24;;;;;;;6.97;4.40;;;;;;;;;;4448736;32;20795;-55
2022/04/11 03:47:49;;;;;;;12.37;4.03;;;;;;;;;;4455044;32;20337;-55
2022/04/11 03:50:15;;;;;;;8.57;3.90;;;;;;;;;;4463271;32;20293;-55
2022/04/11 03:52:40;;;;;;;8.20;5.03;;;;;;;;;;4464553;32;20451;-55
2022/04/11 03:55:06;;;;;;;6.87;4.60;;;;;;;;;;4463775;32;20419;-55
2022/04/11 03:57:33;;;;;;;6.97;4.10;;;;;;;;;;4464229;32;20311;-55
2022/04/11 03:59:58;;;;;;;6.97;3.93;;;;;;;;;;4464232;32;20197;-55
2022/04/11 04:02:24;;;;;;;5.43;3.70;;;;;;;;;;4462935;32;20738;-55
2022/04/11 04:04:49;;;;;;;9.03;4.43;;;;;;;;;;4460225;32;20838;-54
2022/04/11 04:07:14;;;;;;;7.27;3.93;;;;;;;;;;4447045;32;20236;-55
2022/04/11 04:09:40;;;;;;;8.53;4.60;;;;;;;;;;4448042;32;20283;-55
2022/04/11 04:12:06;;;;;;;12.20;4.40;;;;;;;;;;4448400;32;20311;-55
2022/04/11 04:14:31;;;;;;;3.90;3.40;;;;;;;;;;4461858;32;20291;-54
2022/04/11 04:16:57;;;;;;;13.67;3.50;;;;;;;;;;4464095;32;20276;-56
2022/04/11 04:19:22;;;;;;;8.37;4.17;;;;;;;;;;4463626;32;20228;-55
2022/04/11 04:21:49;;;;;;;10.07;4.67;;;;;;;;;;4462537;32;20243;-54
2022/04/11 04:24:15;;;;;;;14.30;4.60;;;;;;;;;;4462620;32;20322;-55
2022/04/11 04:26:40;;;;;;;5.93;4.00;;;;;;;;;;4463419;32;20235;-56
2022/04/11 04:29:05;;;;;;;4.33;3.57;;;;;;;;;;4463795;32;20224;-55
2022/04/11 04:31:31;;;;;;;5.77;2.87;;;;;;;;;;4463406;32;20626;-53
2022/04/11 04:33:57;;;;;;;6.97;3.37;;;;;;;;;;4460184;32;20252;-55
2022/04/11 04:36:22;;;;;;;2.90;2.60;;;;;;;;;;4446680;32;20553;-55
2022/04/11 04:38:48;;;;;;;3.30;2.87;;;;;;;;;;4448127;32;20231;-54
2022/04/11 04:41:13;;;;;;;6.77;3.03;;;;;;;;;;4448901;32;20311;-55
2022/04/11 04:43:38;;;;;;;7.67;3.10;;;;;;;;;;4448176;32;20256;-54
2022/04/11 04:46:04;;;;;;;5.40;3.90;;;;;;;;;;4446759;32;20351;-54
2022/04/11 04:48:29;;;;;;;7.37;3.93;;;;;;;;;;4448826;32;20275;-54
2022/04/11 04:50:56;;;;;;;5.57;4.10;;;;;;;;;;4446190;32;20315;-55
2022/04/11 04:53:22;;;;;;;4.10;3.33;;;;;;;;;;4447118;32;20236;-54
2022/04/11 04:55:47;;;;;;;14.43;3.47;;;;;;;;;;4447753;32;20276;-54
2022/04/11 04:58:12;;;;;;;6.50;4.50;;;;;;;;;;4446923;32;20268;-55
2022/04/11 05:00:38;;;;;;;5.80;4.27;;;;;;;;;;4447122;32;20322;-55
2022/04/11 05:03:03;;;;;;;9.93;4.90;;;;;;;;;;4446280;32;20356;-55
2022/04/11 05:05:29;;;;;;;7.20;4.73;;;;;;;;;;4449635;32;20314;-55
2022/04/11 05:07:54;;;;;;;9.37;4.77;;;;;;;;;;4446888;32;20236;-55
2022/04/11 05:10:20;;;;;;;7.10;4.37;;;;;;;;;;4447230;32;20287;-56
2022/04/11 05:12:46;;;;;;;4.83;4.17;;;;;;;;;;4447334;32;20259;-57
2022/04/11 05:15:13;;;;;;;7.37;4.57;;;;;;;;;;4446719;32;20280;-55
2022/04/11 05:17:40;;;;;;;10.37;5.20;;;;;;;;;;4446811;32;20228;-55
2022/04/11 05:20:08;;;;;;;6.73;4.13;;;;;;;;;;4447209;32;20283;-55
2022/04/11 05:22:33;;;;;;;9.97;4.30;;;;;;;;;;4446671;32;20232;-57
2022/04/11 05:24:59;;;;;;;8.37;5.23;;;;;;;;;;4444949;32;20337;-56
2022/04/11 05:27:24;;;;;;;16.03;6.80;;;;;;;;;;4446945;32;20400;-56
2022/04/11 05:29:50;;;;;;;14.87;6.90;;;;;;;;;;4459080;32;20789;-56
2022/04/11 05:32:15;;;;;;;9.87;5.53;;;;;;;;;;4446506;32;20582;-55
2022/04/11 05:34:41;;;;;;;12.17;6.27;;;;;;;;;;4453651;32;20284;-56
2022/04/11 05:37:06;;;;;;;5.93;4.63;;;;;;;;;;4445732;32;20227;-56
2022/04/11 05:39:32;;;;;;;10.67;4.90;;;;;;;;;;4443186;32;20814;-57
2022/04/11 05:41:57;;;;;;;8.77;5.00;;;;;;;;;;4443755;32;20255;-58
2022/04/11 05:44:23;;;;;;;4.07;3.63;;;;;;;;;;4443586;32;20233;-56
2022/04/11 05:46:52;;;;;;;5.37;4.03;;;;;;;;;;4444747;32;20280;-56
2022/04/11 05:49:21;;;;;;;8.20;5.07;;;;;;;;;;4460678;32;20236;-56
2022/04/11 05:51:47;;;;;;;13.03;6.40;;;;;;;;;;4460681;32;20247;-56
2022/04/11 05:54:13;;;;;;;4.13;3.40;;;;;;;;;;4460826;32;20240;-55
2022/04/11 05:56:38;;;;;;;4.47;3.87;;;;;;;;;;4459397;32;20220;-56
2022/04/11 05:59:04;;;;;;;7.60;3.50;;;;;;;;;;4446679;32;20362;-55
2022/04/11 06:01:30;;;;;;;9.43;4.77;;;;;;;;;;4449833;32;20268;-57
2022/04/11 06:03:56;;;;;;;8.77;3.57;;;;;;;;;;4462759;32;20271;-56
2022/04/11 06:06:21;;;;;;;4.87;3.67;;;;;;;;;;4448065;32;20221;-56
2022/04/11 06:08:47;;;;;;;5.07;3.13;;;;;;;;;;4446728;32;20708;-56
2022/04/11 06:11:13;;;;;;;6.27;3.60;;;;;;;;;;4446640;32;20374;-56
2022/04/11 06:13:42;;;;;;;5.87;3.67;;;;;;;;;;4445303;32;20293;-56
2022/04/11 06:16:08;;;;;;;4.67;3.50;;;;;;;;;;4445388;32;20258;-55
2022/04/11 06:18:33;;;;;;;5.20;3.53;;;;;;;;;;4447235;32;20307;-55
2022/04/11 06:20:59;;;;;;;5.07;3.67;;;;;;;;;;4446573;32;20299;-56
2022/04/11 06:23:24;;;;;;;5.23;3.60;;;;;;;;;;4446424;32;20995;-56
2022/04/11 06:25:49;;;;;;;6.83;4.00;;;;;;;;;;4446790;32;20314;-56
2022/04/11 06:28:15;;;;;;;3.07;2.77;;;;;;;;;;4446533;32;20670;-56
2022/04/11 06:30:40;;;;;;;6.83;3.37;;;;;;;;;;4446423;32;20751;-56
2022/04/11 06:33:06;;;;;;;3.37;2.67;;;;;;;;;;4444878;32;20592;-55
2022/04/11 06:35:31;;;;;;;6.10;3.77;;;;;;;;;;4459618;32;20719;-55
2022/04/11 06:37:57;;;;;;;6.50;3.67;;;;;;;;;;4464278;32;20259;-56
2022/04/11 06:40:22;;;;;;;6.03;3.53;;;;;;;;;;4465526;32;20787;-56
2022/04/11 06:42:48;;;;;;;4.00;3.00;;;;;;;;;;4465551;32;20224;-56
2022/04/11 06:45:14;;;;;;;4.17;2.80;;;;;;;;;;4463929;32;20397;-56
2022/04/11 06:47:40;;;;;;;6.30;3.50;;;;;;;;;;4456282;32;20248;-56
2022/04/11 06:50:06;;;;;;;3.83;3.33;;;;;;;;;;4449909;32;20212;-56
2022/04/11 06:52:31;;;;;;;6.53;3.00;;;;;;;;;;4449290;32;20247;-56
2022/04/11 06:54:57;;;;;;;5.17;2.97;;;;;;;;;;4454769;32;20888;-56
2022/04/11 06:57:24;;;;;;;9.77;3.70;;;;;;;;;;4463542;32;20350;-56
2022/04/11 06:59:50;;;;;;;7.40;4.00;;;;;;;;;;4449460;32;20212;-56
2022/04/11 07:02:16;;;;;;;5.17;3.70;;;;;;;;;;4447845;32;20287;-56
2022/04/11 07:04:42;;;;;;;4.90;3.07;;;;;;;;;;4451211;32;20310;-55
2022/04/11 07:07:07;;;;;;;4.37;3.43;;;;;;;;;;4450312;32;20237;-55
2022/04/11 07:09:33;;;;;;;4.13;2.90;;;;;;;;;;4447412;32;20409;-56
2022/04/11 07:11:58;;;;;;;4.93;3.10;;;;;;;;;;4449188;32;20291;-55
2022/04/11 07:14:25;;;;;;;7.47;2.93;;;;;;;;;;4462570;32;20808;-55
2022/04/11 07:16:52;;;;;;;3.37;2.83;;;;;;;;;;4464526;32;20236;-55
2022/04/11 07:19:19;;;;;;;3.47;3.10;;;;;;;;;;4464780;32;20706;-56
2022/04/11 07:21:46;;;;;;;5.13;3.00;;;;;;;;;;4465784;32;20279;-57
2022/04/11 07:24:12;;;;;;;3.03;2.70;;;;;;;;;;4466197;32;20701;-55
2022/04/11 07:26:37;;;;;;;5.03;3.90;;;;;;;;;;4465398;32;20287;-56
2022/04/11 07:29:03;;;;;;;5.63;2.93;;;;;;;;;;4459343;32;20530;-54
2022/04/11 07:31:29;;;;;;;3.73;3.33;;;;;;;;;;4454423;32;20212;-55
2022/04/11 07:33:55;;;;;;;10.00;2.97;;;;;;;;;;4463088;32;20358;-55
2022/04/11 07:36:20;;;;;;;5.20;3.53;;;;;;;;;;4450388;32;20635;-55
2022/04/11 07:38:46;;;;;;;7.50;2.70;;;;;;;;;;4450332;32;20299;-56
2022/04/11 07:41:11;;;;;;;6.03;3.40;;;;;;;;;;4448830;32;20728;-57
2022/04/11 07:43:37;;;;;;;8.90;2.90;;;;;;;;;;4450297;32;20287;-55
2022/04/11 07:46:05;;;;;;;5.83;3.60;;;;;;;;;;4449859;32;20666;-55
2022/04/11 07:48:33;;;;;;;3.37;2.93;;;;;;;;;;4460871;32;20294;-56
2022/04/11 07:50:59;;;;;;;10.17;5.77;;;;;;;;;;4465184;32;20212;-56
2022/04/11 07:53:24;;;;;;;7.77;4.87;;;;;;;;;;4464120;32;20397;-56
2022/04/11 07:55:50;;;;;;;4.77;3.43;;;;;;;;;;4449872;32;20360;-56
2022/04/11 07:58:18;;;;;;;6.87;3.37;;;;;;;;;;4449627;32;20584;-55
2022/04/11 08:00:45;;;;;;;5.07;3.33;;;;;;;;;;4449208;32;20284;-56
2022/04/11 08:03:10;;;;;;;4.47;2.80;;;;;;;;;;4448602;32;20247;-56
2022/04/11 08:05:36;;;;;;;5.23;4.10;;;;;;;;;;4451741;32;20418;-55
2022/04/11 08:08:01;;;;;;;5.73;3.77;;;;;;;;;;4448722;32;20224;-55
2022/04/11 08:10:27;;;;;;;5.00;3.20;;;;;;;;;;4448876;32;20263;-55
2022/04/11 08:12:55;;;;;;;3.90;2.93;;;;;;;;;;4449100;32;20235;-56
2022/04/11 08:15:22;;;;;;;6.90;3.40;;;;;;;;;;4449242;32;20208;-56
2022/04/11 08:17:48;;;;;;;3.13;2.50;;;;;;;;;;4449322;32;20277;-57
2022/04/11 08:20:14;;;;;;;5.57;3.50;;;;;;;;;;4448673;32;20280;-57
2022/04/11 08:22:39;;;;;;;4.07;3.07;;;;;;;;;;4460404;32;20381;-56
2022/04/11 08:25:05;;;;;;;4.57;3.23;;;;;;;;;;4448636;32;20296;-56
2022/04/11 08:27:31;;;;;;;3.00;2.70;;;;;;;;;;4449228;32;20568;-54
2022/04/11 08:29:56;;;;;;;3.40;2.70;;;;;;;;;;4449063;32;20384;-55
2022/04/11 08:32:22;;;;;;;2.90;2.53;;;;;;;;;;4458958;32;20655;-55
2022/04/11 08:34:47;;;;;;;3.90;3.33;;;;;;;;;;4456006;32;20293;-54
2022/04/11 08:37:13;;;;;;;5.47;3.87;;;;;;;;;;4448317;32;20192;-54
2022/04/11 08:39:38;;;;;;;5.47;3.77;;;;;;;;;;4448751;32;20358;-54
2022/04/11 08:42:04;;;;;;;11.53;4.03;;;;;;;;;;4454753;32;20314;-55
2022/04/11 08:44:32;;;;;;;3.50;2.57;;;;;;;;;;4464236;32;20283;-55
2022/04/11 08:47:03;;;;;;;5.00;3.43;;;;;;;;;;4460931;32;20240;-56
2022/04/11 08:49:29;;;;;;;10.67;2.67;;;;;;;;;;4448329;32;20251;-55
2022/04/11 08:51:55;;;;;;;6.53;2.80;;;;;;;;;;4462217;32;20287;-55
2022/04/11 08:54:20;;;;;;;5.07;3.37;;;;;;;;;;4462592;32;20621;-55
2022/04/11 08:56:46;;;;;;;5.97;4.37;;;;;;;;;;4448573;32;20264;-54
2022/04/11 08:59:12;;;;;;;5.47;3.90;;;;;;;;;;4447844;32;20274;-58
2022/04/11 09:01:37;;;;;;;9.37;4.83;;;;;;;;;;4446897;32;20306;-56
2022/04/11 09:04:03;;;;;;;3.37;2.43;;;;;;;;;;4447570;32;20671;-56
2022/04/11 09:06:33;;;;;;;3.13;2.73;;;;;;;;;;4452652;32;20275;-57
2022/04/11 09:08:58;;;;;;;6.37;2.60;;;;;;;;;;4448347;32;20254;-55
2022/04/11 09:11:35;;;;;;;4.67;2.57;;;;;;;;;;4448412;32;20231;-57
2022/04/11 09:14:05;;;;;;;3.33;3.03;;;;;;;;;;4458843;32;20567;-56
2022/04/11 09:16:49;;;;;;;3.17;2.87;;;;;;;;;;4463799;32;20650;-55
2022/04/11 09:19:25;;;;;;;4.23;3.00;;;;;;;;;;4462282;32;20303;-54
2022/04/11 09:21:54;;;;;;;4.77;3.70;;;;;;;;;;4453602;32;20346;-55
2022/04/11 09:24:22;;;;;;;4.17;3.43;;;;;;;;;;4447727;32;20254;-55
2022/04/11 09:26:51;;;;;;;5.50;3.17;;;;;;;;;;4447808;32;20243;-55
2022/04/11 09:29:17;;;;;;;6.63;3.80;;;;;;;;;;4448626;32;20572;-55
2022/04/11 09:31:43;;;;;;;5.17;3.03;;;;;;;;;;4454012;32;20207;-56
2022/04/11 09:34:23;;;;;;;5.30;3.27;;;;;;;;;;4462815;32;20251;-55
2022/04/11 09:36:51;;;;;;;8.97;3.63;;;;;;;;;;4463869;32;20770;-55
2022/04/11 09:39:22;;;;;;;5.80;3.33;;;;;;;;;;4463473;32;20220;-54
2022/04/11 09:41:49;;;;;;;7.20;5.27;;;;;;;;;;4463740;32;20256;-55
2022/04/11 09:44:29;;;;;;;6.13;4.17;;;;;;;;;;4463699;32;20410;-55
2022/04/11 09:46:59;;;;;;;8.53;5.20;;;;;;;;;;4458108;32;20291;-55
2022/04/11 09:49:24;;;;;;;6.23;3.03;;;;;;;;;;4447874;32;20319;-54
2022/04/11 09:52:12;;;;;;;3.70;2.53;;;;;;;;;;4461699;32;20373;-54
2022/04/11 09:54:42;;;;;;;4.33;3.37;;;;;;;;;;4463772;32;20228;-55
2022/04/11 09:57:09;;;;;;;9.57;3.70;;;;;;;;;;4463567;32;20292;-54
2022/04/11 09:59:36;;;;;;;7.10;4.37;;;;;;;;;;4463449;32;20340;-55
2022/04/11 10:02:03;;;;;;;6.27;3.30;;;;;;;;;;4463576;32;20676;-55
2022/04/11 10:04:29;;;;;;;6.70;2.43;;;;;;;;;;4462056;32;20232;-55
2022/04/11 10:06:55;;;;;;;4.03;2.97;;;;;;;;;;4459796;32;20708;-55
2022/04/11 10:09:23;;;;;;;4.43;3.20;;;;;;;;;;4458463;32;20342;-54
2022/04/11 10:11:51;;;;;;;4.03;2.63;;;;;;;;;;4445346;32;20266;-55
2022/04/11 10:14:23;;;;;;;4.03;2.87;;;;;;;;;;4451639;32;20633;-57
2022/04/11 10:16:50;;;;;;;7.23;4.27;;;;;;;;;;4456110;32;20236;-57
2022/04/11 10:19:15;;;;;;;11.37;4.27;;;;;;;;;;4446421;32;20318;-55
2022/04/11 10:21:43;;;;;;;7.30;3.73;;;;;;;;;;4453090;32;20242;-54
2022/04/11 10:24:20;;;;;;;4.50;2.77;;;;;;;;;;4444824;32;20271;-54
2022/04/11 10:26:46;;;;;;;4.80;3.30;;;;;;;;;;4448171;32;20307;-55
2022/04/11 10:29:32;;;;;;;4.87;3.20;;;;;;;;;;4449396;32;20232;-55
2022/04/11 10:32:14;;;;;;;6.03;3.63;;;;;;;;;;4444914;32;20346;-57
2022/04/11 10:34:47;;;;;;;5.30;3.90;;;;;;;;;;4456391;32;20208;-56
2022/04/11 10:37:13;;;;;;;7.57;4.07;;;;;;;;;;4446329;32;20312;-55
2022/04/11 10:39:39;;;;;;;3.23;2.07;;;;;;;;;;4446558;32;20322;-58
2022/04/11 10:42:11;;;;;;;4.50;3.53;;;;;;;;;;4446207;32;20321;-57
2022/04/11 10:44:45;;;;;;;6.20;3.93;;;;;;;;;;4448436;32;20213;-55
2022/04/11 10:47:14;;;;;;;4.77;3.10;;;;;;;;;;4445738;32;20631;-55
2022/04/11 10:49:48;;;;;;;4.33;2.97;;;;;;;;;;4459182;32;20251;-54
2022/04/11 10:52:38;;;;;;;4.40;3.13;;;;;;;;;;4447341;32;20310;-54
2022/04/11 10:55:22;;;;;;;8.30;4.00;;;;;;;;;;4457285;32;20232;-55
2022/04/11 10:57:51;;;;;;;3.53;3.23;;;;;;;;;;4453872;32;20258;-55
2022/04/11 11:00:23;;;;;;;9.50;3.23;;;;;;;;;;4456381;32;20280;-55
2022/04/11 11:02:48;;;;;;;4.57;3.37;;;;;;;;;;4449037;32;20691;-55
2022/04/11 11:05:38;;;;;;;4.03;3.07;;;;;;;;;;4448976;32;20291;-57
2022/04/11 11:08:09;;;;;;;8.20;3.73;;;;;;;;;;4444125;32;20391;-54
2022/04/11 11:10:45;;;;;;;9.90;3.97;;;;;;;;;;4444403;32;20315;-54
2022/04/11 11:13:25;;;;;;;12.37;6.87;;;;;;;;;;4455353;32;20322;-55
2022/04/11 11:15:50;;;;;;;5.53;3.40;;;;;;;;;;4448980;32;20387;-54
2022/04/11 11:18:16;;;;;;;7.20;3.17;;;;;;;;;;4456752;32;20228;-55
2022/04/11 11:20:55;;;;;;;6.53;3.87;;;;;;;;;;4457587;32;20290;-55
2022/04/11 11:23:30;;;;;;;4.47;2.60;;;;;;;;;;4456696;32;21102;-54
2022/04/11 11:26:10;;;;;;;15.87;7.83;;;;;;;;;;4453000;32;20309;-56
2022/04/11 11:28:36;;;;;;;15.30;6.97;;;;;;;;;;4459571;32;21167;-56
2022/04/11 11:31:02;;;;;;;12.07;4.97;;;;;;;;;;4457884;32;20283;-56
2022/04/11 11:33:28;;;;;;;7.20;4.17;;;;;;;;;;4450279;32;20228;-56
2022/04/11 11:35:55;;;;;;;9.27;4.60;;;;;;;;;;4452708;32;20264;-56
2022/04/11 11:38:30;;;;;;;5.37;3.23;;;;;;;;;;4452439;32;20363;-56
2022/04/11 11:40:57;;;;;;;8.03;3.47;;;;;;;;;;4451567;32;20496;-56
2022/04/11 11:43:24;;;;;;;4.70;2.67;;;;;;;;;;4449935;32;20261;-56
2022/04/11 11:45:50;;;;;;;10.70;5.50;;;;;;;;;;4450946;32;20201;-57
2022/04/11 11:48:27;;;;;;;8.17;4.83;;;;;;;;;;4447176;32;20391;-56
2022/04/11 11:50:56;;;;;;;28.53;11.50;;;;;;;;;;4449455;32;20761;-57
2022/04/11 11:53:39;;;;;;;4.83;3.10;;;;;;;;;;4459252;32;20275;-54
2022/04/11 11:56:08;;;;;;;5.67;2.60;;;;;;;;;;4458330;32;20689;-55
2022/04/11 11:58:38;;;;;;;4.40;3.03;;;;;;;;;;4459269;32;20652;-54
2022/04/11 12:01:05;;;;;;;3.70;2.23;;;;;;;;;;4458198;32;20280;-55
2022/04/11 12:06:28;;;;;;;3.23;2.27;;;;;;;;;;4459484;32;20699;-54
2022/04/11 12:08:58;;;;;;;2.67;1.87;;;;;;;;;;4450905;32;20679;-55
2022/04/11 12:11:25;;;;;;;3.40;2.70;;;;;;;;;;4454358;32;20653;-55
2022/04/11 12:13:59;;;;;;;4.43;3.13;;;;;;;;;;4462303;32;20333;-55
2022/04/11 12:16:24;;;;;;;4.50;2.27;;;;;;;;;;4462776;32;20259;-54
2022/04/11 12:18:51;;;;;;;7.17;4.00;;;;;;;;;;4458803;32;20303;-54
2022/04/11 12:21:17;;;;;;;4.80;2.67;;;;;;;;;;4453125;32;20209;-55
2022/04/11 12:23:48;;;;;;;5.83;4.13;;;;;;;;;;4454950;32;20223;-56
2022/04/11 12:26:37;;;;;;;6.87;4.27;;;;;;;;;;4454676;32;20606;-54
2022/04/11 12:29:23;;;;;;;5.03;3.50;;;;;;;;;;4461219;32;20515;-55
2022/04/11 12:31:59;;;;;;;4.20;2.13;;;;;;;;;;4453184;32;20228;-55
2022/04/11 12:34:33;;;;;;;7.23;3.63;;;;;;;;;;4451961;32;20553;-55
2022/04/11 12:37:01;;;;;;;5.00;3.10;;;;;;;;;;4449015;32;20632;-56
2022/04/11 12:39:27;;;;;;;7.37;4.27;;;;;;;;;;4453480;32;20255;-55
2022/04/11 12:41:52;;;;;;;5.13;3.20;;;;;;;;;;4448994;32;20254;-55
2022/04/11 12:44:19;;;;;;;8.27;4.67;;;;;;;;;;4456260;32;20627;-54
2022/04/11 12:46:56;;;;;;;4.23;2.03;;;;;;;;;;4460908;32;20674;-55
2022/04/11 12:49:23;;;;;;;9.47;3.90;;;;;;;;;;4453692;32;20661;-56
2022/04/11 12:52:07;;;;;;;8.63;4.90;;;;;;;;;;4452293;32;20370;-56
2022/04/11 12:54:36;;;;;;;7.67;4.47;;;;;;;;;;4459028;32;20387;-56
2022/04/11 12:57:02;;;;;;;3.80;2.07;;;;;;;;;;4449196;32;20266;-56
2022/04/11 12:59:30;;;;;;;2.07;1.80;;;;;;;;;;4448980;32;20311;-56
2022/04/11 13:02:10;;;;;;;3.80;2.20;;;;;;;;;;4446581;32;20248;-56
2022/04/11 13:04:39;;;;;;;3.83;2.63;;;;;;;;;;4445942;32;20354;-56
2022/04/11 13:07:06;;;;;;;10.83;4.90;;;;;;;;;;4449642;32;20302;-56
2022/04/11 13:09:32;;;;;;;4.97;2.97;;;;;;;;;;4447881;32;20201;-55
2022/04/11 13:11:58;;;;;;;4.03;2.77;;;;;;;;;;4448965;32;20209;-58
2022/04/11 13:14:24;;;;;;;4.57;3.20;;;;;;;;;;4461997;32;20279;-57
2022/04/11 13:19:34;;;;;;;6.40;3.47;;;;;;;;;;4448542;32;20306;-56
2022/04/11 13:22:02;;;;;;;11.53;3.73;;;;;;;;;;4447440;32;20221;-55
2022/04/11 13:24:29;;;;;;;6.03;2.47;;;;;;;;;;4448639;32;20242;-56
2022/04/11 13:26:54;;;;;;;8.57;5.77;;;;;;;;;;4448643;32;20335;-57
2022/04/11 13:29:20;;;;;;;5.00;3.17;;;;;;;;;;4447215;32;20315;-57
2022/04/11 13:31:45;;;;;;;6.83;4.27;;;;;;;;;;4448399;32;20205;-56
2022/04/11 13:34:11;;;;;;;12.57;7.20;;;;;;;;;;4448754;32;20254;-56
2022/04/11 13:36:36;;;;;;;5.83;3.60;;;;;;;;;;4448392;32;20283;-56
2022/04/11 13:39:03;;;;;;;17.90;9.77;;;;;;;;;;4447664;32;20664;-56
2022/04/11 13:41:29;;;;;;;20.23;9.83;;;;;;;;;;4448699;32;20205;-55
2022/04/11 13:43:54;;;;;;;38.87;17.80;;;;;;;;;;4448656;32;20860;-55
2022/04/11 13:46:20;;;;;;;20.53;9.77;;;;;;;;;;4448025;32;20220;-56
2022/04/11 13:48:45;;;;;;;16.97;9.13;;;;;;;;;;4460795;32;20453;-56
2022/04/11 13:51:11;;;;;;;50.53;25.03;;;;;;;;;;4453602;32;20339;-56
2022/04/11 13:53:37;;;;;;;18.07;9.17;;;;;;;;;;4448108;32;20259;-56
2022/04/11 13:56:05;;;;;;;15.53;8.03;;;;;;;;;;4459959;32;20420;-56
2022/04/11 13:58:32;;;;;;;8.70;2.80;;;;;;;;;;4463937;32;20576;-56
2022/04/11 14:00:57;;;;;;;60.03;23.53;;;;;;;;;;4463582;32;20375;-57
2022/04/11 14:03:22;;;;;;;19.23;8.53;;;;;;;;;;4453342;32;20238;-56
2022/04/11 14:05:48;;;;;;;69.93;32.53;;;;;;;;;;4448162;32;20379;-56
2022/04/11 14:08:13;;;;;;;82.33;36.97;;;;;;;;;;4447435;32;20327;-56
2022/04/11 14:10:39;;;;;;;48.70;22.37;;;;;;;;;;4446374;32;20335;-56
2022/04/11 14:13:05;;;;;;;11.50;5.40;;;;;;;;;;4446017;32;20430;-57
2022/04/11 14:15:31;;;;;;;12.87;5.60;;;;;;;;;;4447623;32;20332;-56
2022/04/11 14:17:56;;;;;;;7.83;3.33;;;;;;;;;;4447832;32;20251;-56
2022/04/11 14:20:22;;;;;;;29.47;15.50;;;;;;;;;;4447542;32;20335;-55
2022/04/11 14:22:48;;;;;;;53.47;24.50;;;;;;;;;;4447645;32;20283;-56
2022/04/11 14:25:13;;;;;;;41.83;18.07;;;;;;;;;;4447744;32;20354;-56
2022/04/11 14:27:39;;;;;;;18.60;9.43;;;;;;;;;;4450713;32;20297;-55
2022/04/11 14:30:05;;;;;;;21.03;10.80;;;;;;;;;;4463566;32;20698;-57
2022/04/11 14:32:30;;;;;;;35.23;15.83;;;;;;;;;;4463051;32;20693;-55
2022/04/11 14:34:56;;;;;;;10.80;5.50;;;;;;;;;;4463328;32;20904;-57
2022/04/11 14:37:21;;;;;;;4.60;2.30;;;;;;;;;;4462200;32;20259;-56
2022/04/11 14:39:47;;;;;;;6.13;3.50;;;;;;;;;;4463260;32;20251;-54
2022/04/11 14:42:12;;;;;;;5.07;2.50;;;;;;;;;;4463009;32;20203;-56
2022/04/11 14:44:38;;;;;;;4.80;2.97;;;;;;;;;;4463119;32;20378;-55
2022/04/11 14:47:05;;;;;;;2.90;2.43;;;;;;;;;;4459832;32;20319;-55